sensor_id;sensor_type;location;lat;lon;timestamp;P1;durP1;ratioP1;P2;durP2;ratioP2
13967;SDS011;39536;52.198;9.920;2022-10-03T00:01:42;12.53;;;2.80;;
13967;SDS011;39536;52.198;9.920;2022-10-03T00:04:29;7.60;;;2.70;;
13967;SDS011;39536;52.198;9.920;2022-10-03T00:07:14;13.80;;;3.20;;
13967;SDS011;39536;52.198;9.920;2022-10-03T00:09:53;12.53;;;3.27;;
13967;SDS011;39536;52.198;9.920;2022-10-03T00:12:39;15.40;;;3.23;;
13967;SDS011;39536;52.198;9.920;2022-10-03T00:15:14;14.20;;;2.90;;
13967;SDS011;39536;52.198;9.920;2022-10-03T00:17:47;13.10;;;3.37;;
13967;SDS011;39536;52.198;9.920;2022-10-03T00:23:32;18.00;;;2.90;;
13967;SDS011;39536;52.198;9.920;2022-10-03T00:26:08;11.73;;;2.90;;
13967;SDS011;39536;52.198;9.920;2022-10-03T00:28:59;8.53;;;2.73;;
13967;SDS011;39536;52.198;9.920;2022-10-03T00:31:38;12.10;;;2.53;;
13967;SDS011;39536;52.198;9.920;2022-10-03T00:34:17;10.90;;;2.80;;
13967;SDS011;39536;52.198;9.920;2022-10-03T00:36:55;10.83;;;2.50;;
13967;SDS011;39536;52.198;9.920;2022-10-03T00:39:41;9.60;;;2.53;;
13967;SDS011;39536;52.198;9.920;2022-10-03T00:42:35;12.80;;;2.77;;
13967;SDS011;39536;52.198;9.920;2022-10-03T00:45:29;7.17;;;2.73;;
13967;SDS011;39536;52.198;9.920;2022-10-03T00:48:29;12.17;;;3.20;;
13967;SDS011;39536;52.198;9.920;2022-10-03T00:51:30;10.43;;;2.30;;
13967;SDS011;39536;52.198;9.920;2022-10-03T00:54:12;8.70;;;2.30;;
13967;SDS011;39536;52.198;9.920;2022-10-03T00:56:56;14.70;;;2.80;;
13967;SDS011;39536;52.198;9.920;2022-10-03T00:59:47;9.23;;;2.73;;
13967;SDS011;39536;52.198;9.920;2022-10-03T01:02:33;20.10;;;3.03;;
13967;SDS011;39536;52.198;9.920;2022-10-03T01:05:12;9.20;;;2.37;;
13967;SDS011;39536;52.198;9.920;2022-10-03T01:07:54;11.23;;;2.20;;
13967;SDS011;39536;52.198;9.920;2022-10-03T01:10:32;10.83;;;3.00;;
13967;SDS011;39536;52.198;9.920;2022-10-03T01:13:16;9.93;;;2.90;;
13967;SDS011;39536;52.198;9.920;2022-10-03T01:15:57;6.67;;;2.20;;
13967;SDS011;39536;52.198;9.920;2022-10-03T01:18:38;8.57;;;2.30;;
13967;SDS011;39536;52.198;9.920;2022-10-03T01:21:17;9.33;;;2.80;;
13967;SDS011;39536;52.198;9.920;2022-10-03T01:26:56;6.70;;;1.90;;
13967;SDS011;39536;52.198;9.920;2022-10-03T01:29:33;13.93;;;3.17;;
13967;SDS011;39536;52.198;9.920;2022-10-03T01:32:28;8.03;;;2.60;;
13967;SDS011;39536;52.198;9.920;2022-10-03T01:35:14;8.40;;;2.43;;
13967;SDS011;39536;52.198;9.920;2022-10-03T01:37:51;13.90;;;2.80;;
13967;SDS011;39536;52.198;9.920;2022-10-03T01:40:27;12.50;;;3.13;;
13967;SDS011;39536;52.198;9.920;2022-10-03T01:43:02;7.70;;;2.93;;
13967;SDS011;39536;52.198;9.920;2022-10-03T01:45:48;9.57;;;2.43;;
13967;SDS011;39536;52.198;9.920;2022-10-03T01:48:25;9.40;;;2.10;;
13967;SDS011;39536;52.198;9.920;2022-10-03T01:51:00;8.60;;;1.97;;
13967;SDS011;39536;52.198;9.920;2022-10-03T01:53:35;8.83;;;3.10;;
13967;SDS011;39536;52.198;9.920;2022-10-03T01:56:09;8.10;;;1.63;;
13967;SDS011;39536;52.198;9.920;2022-10-03T01:58:44;7.37;;;2.13;;
13967;SDS011;39536;52.198;9.920;2022-10-03T02:01:23;10.13;;;2.67;;
13967;SDS011;39536;52.198;9.920;2022-10-03T02:03:58;6.83;;;2.40;;
13967;SDS011;39536;52.198;9.920;2022-10-03T02:06:33;7.73;;;2.03;;
13967;SDS011;39536;52.198;9.920;2022-10-03T02:09:14;9.27;;;2.20;;
13967;SDS011;39536;52.198;9.920;2022-10-03T02:11:58;5.50;;;2.20;;
13967;SDS011;39536;52.198;9.920;2022-10-03T02:14:32;6.83;;;3.10;;
13967;SDS011;39536;52.198;9.920;2022-10-03T02:17:08;10.77;;;2.73;;
13967;SDS011;39536;52.198;9.920;2022-10-03T02:19:43;11.20;;;2.10;;
13967;SDS011;39536;52.198;9.920;2022-10-03T02:22:27;9.83;;;2.20;;
13967;SDS011;39536;52.198;9.920;2022-10-03T02:25:01;7.90;;;2.23;;
13967;SDS011;39536;52.198;9.920;2022-10-03T02:27:41;12.67;;;2.47;;
13967;SDS011;39536;52.198;9.920;2022-10-03T02:30:23;11.77;;;2.53;;
13967;SDS011;39536;52.198;9.920;2022-10-03T02:33:25;10.60;;;2.27;;
13967;SDS011;39536;52.198;9.920;2022-10-03T02:36:17;12.20;;;2.27;;
13967;SDS011;39536;52.198;9.920;2022-10-03T02:39:33;9.07;;;2.03;;
13967;SDS011;39536;52.198;9.920;2022-10-03T02:48:43;9.07;;;2.57;;
13967;SDS011;39536;52.198;9.920;2022-10-03T03:04:07;8.97;;;2.03;;
13967;SDS011;39536;52.198;9.920;2022-10-03T03:07:07;10.70;;;2.33;;
13967;SDS011;39536;52.198;9.920;2022-10-03T03:10:06;6.97;;;2.17;;
13967;SDS011;39536;52.198;9.920;2022-10-03T03:13:08;8.43;;;2.83;;
13967;SDS011;39536;52.198;9.920;2022-10-03T03:16:13;9.77;;;2.47;;
13967;SDS011;39536;52.198;9.920;2022-10-03T03:19:15;12.13;;;2.57;;
13967;SDS011;39536;52.198;9.920;2022-10-03T03:21:56;5.80;;;1.87;;
13967;SDS011;39536;52.198;9.920;2022-10-03T03:24:39;7.60;;;2.53;;
13967;SDS011;39536;52.198;9.920;2022-10-03T03:27:25;11.47;;;2.13;;
13967;SDS011;39536;52.198;9.920;2022-10-03T03:30:04;10.53;;;2.50;;
13967;SDS011;39536;52.198;9.920;2022-10-03T03:32:38;14.10;;;2.70;;
13967;SDS011;39536;52.198;9.920;2022-10-03T03:35:19;8.13;;;2.50;;
13967;SDS011;39536;52.198;9.920;2022-10-03T03:37:56;8.23;;;2.10;;
13967;SDS011;39536;52.198;9.920;2022-10-03T03:40:42;10.53;;;2.67;;
13967;SDS011;39536;52.198;9.920;2022-10-03T03:43:21;7.27;;;1.93;;
13967;SDS011;39536;52.198;9.920;2022-10-03T03:46:04;10.07;;;2.43;;
13967;SDS011;39536;52.198;9.920;2022-10-03T03:48:50;11.43;;;2.83;;
13967;SDS011;39536;52.198;9.920;2022-10-03T03:51:30;8.97;;;1.90;;
13967;SDS011;39536;52.198;9.920;2022-10-03T03:57:32;8.10;;;2.23;;
13967;SDS011;39536;52.198;9.920;2022-10-03T04:00:16;11.03;;;2.30;;
13967;SDS011;39536;52.198;9.920;2022-10-03T04:02:51;13.97;;;3.27;;
13967;SDS011;39536;52.198;9.920;2022-10-03T04:05:34;11.70;;;2.37;;
13967;SDS011;39536;52.198;9.920;2022-10-03T04:08:25;12.53;;;2.50;;
13967;SDS011;39536;52.198;9.920;2022-10-03T04:11:10;8.00;;;2.17;;
13967;SDS011;39536;52.198;9.920;2022-10-03T04:13:57;11.53;;;3.17;;
13967;SDS011;39536;52.198;9.920;2022-10-03T04:19:49;10.20;;;2.40;;
13967;SDS011;39536;52.198;9.920;2022-10-03T04:22:35;8.70;;;2.70;;
13967;SDS011;39536;52.198;9.920;2022-10-03T04:25:18;9.23;;;1.87;;
13967;SDS011;39536;52.198;9.920;2022-10-03T04:28:02;9.43;;;2.23;;
13967;SDS011;39536;52.198;9.920;2022-10-03T04:30:39;7.67;;;2.73;;
13967;SDS011;39536;52.198;9.920;2022-10-03T04:33:22;9.43;;;2.70;;
13967;SDS011;39536;52.198;9.920;2022-10-03T04:36:12;8.33;;;2.87;;
13967;SDS011;39536;52.198;9.920;2022-10-03T04:38:59;8.17;;;2.67;;
13967;SDS011;39536;52.198;9.920;2022-10-03T04:41:36;7.93;;;2.10;;
13967;SDS011;39536;52.198;9.920;2022-10-03T04:44:14;13.63;;;2.67;;
13967;SDS011;39536;52.198;9.920;2022-10-03T04:46:53;12.03;;;2.33;;
13967;SDS011;39536;52.198;9.920;2022-10-03T04:49:28;8.63;;;1.93;;
13967;SDS011;39536;52.198;9.920;2022-10-03T04:52:01;11.53;;;2.50;;
13967;SDS011;39536;52.198;9.920;2022-10-03T04:54:39;12.27;;;2.23;;
13967;SDS011;39536;52.198;9.920;2022-10-03T04:57:19;10.73;;;2.40;;
13967;SDS011;39536;52.198;9.920;2022-10-03T04:59:51;7.93;;;1.93;;
13967;SDS011;39536;52.198;9.920;2022-10-03T05:02:30;6.10;;;1.87;;
13967;SDS011;39536;52.198;9.920;2022-10-03T05:05:11;5.10;;;1.57;;
13967;SDS011;39536;52.198;9.920;2022-10-03T05:07:47;7.53;;;2.03;;
13967;SDS011;39536;52.198;9.920;2022-10-03T05:10:21;7.37;;;2.27;;
13967;SDS011;39536;52.198;9.920;2022-10-03T05:13:04;7.27;;;1.90;;
13967;SDS011;39536;52.198;9.920;2022-10-03T05:15:41;12.27;;;3.70;;
13967;SDS011;39536;52.198;9.920;2022-10-03T05:18:20;7.27;;;2.27;;
13967;SDS011;39536;52.198;9.920;2022-10-03T05:20:54;8.77;;;2.23;;
13967;SDS011;39536;52.198;9.920;2022-10-03T05:23:32;9.80;;;1.80;;
13967;SDS011;39536;52.198;9.920;2022-10-03T05:26:14;5.40;;;1.63;;
13967;SDS011;39536;52.198;9.920;2022-10-03T05:28:52;11.20;;;1.83;;
13967;SDS011;39536;52.198;9.920;2022-10-03T05:31:30;10.70;;;1.90;;
13967;SDS011;39536;52.198;9.920;2022-10-03T05:34:11;9.33;;;2.67;;
13967;SDS011;39536;52.198;9.920;2022-10-03T05:36:56;9.83;;;2.53;;
13967;SDS011;39536;52.198;9.920;2022-10-03T05:39:44;10.17;;;2.17;;
13967;SDS011;39536;52.198;9.920;2022-10-03T05:42:35;9.77;;;2.33;;
13967;SDS011;39536;52.198;9.920;2022-10-03T05:45:18;11.10;;;2.13;;
13967;SDS011;39536;52.198;9.920;2022-10-03T05:47:53;11.97;;;2.73;;
13967;SDS011;39536;52.198;9.920;2022-10-03T05:50:41;11.97;;;2.63;;
13967;SDS011;39536;52.198;9.920;2022-10-03T05:53:31;13.90;;;2.47;;
13967;SDS011;39536;52.198;9.920;2022-10-03T05:56:16;6.27;;;1.97;;
13967;SDS011;39536;52.198;9.920;2022-10-03T05:59:15;10.00;;;2.17;;
13967;SDS011;39536;52.198;9.920;2022-10-03T06:02:12;14.47;;;4.03;;
13967;SDS011;39536;52.198;9.920;2022-10-03T06:05:11;7.77;;;2.23;;
13967;SDS011;39536;52.198;9.920;2022-10-03T06:07:44;10.27;;;2.77;;
13967;SDS011;39536;52.198;9.920;2022-10-03T06:10:36;8.87;;;2.63;;
13967;SDS011;39536;52.198;9.920;2022-10-03T06:13:12;13.73;;;2.77;;
13967;SDS011;39536;52.198;9.920;2022-10-03T06:15:58;8.53;;;2.87;;
13967;SDS011;39536;52.198;9.920;2022-10-03T06:21:52;13.30;;;3.50;;
13967;SDS011;39536;52.198;9.920;2022-10-03T06:25:00;11.83;;;3.07;;
13967;SDS011;39536;52.198;9.920;2022-10-03T06:31:14;9.93;;;3.50;;
13967;SDS011;39536;52.198;9.920;2022-10-03T06:34:23;10.70;;;3.67;;
13967;SDS011;39536;52.198;9.920;2022-10-03T06:37:11;12.03;;;3.17;;
13967;SDS011;39536;52.198;9.920;2022-10-03T06:43:06;5.27;;;2.93;;
13967;SDS011;39536;52.198;9.920;2022-10-03T07:01:32;6.73;;;2.63;;
13967;SDS011;39536;52.198;9.920;2022-10-03T07:07:47;7.73;;;2.70;;
13967;SDS011;39536;52.198;9.920;2022-10-03T07:10:45;7.97;;;3.13;;
13967;SDS011;39536;52.198;9.920;2022-10-03T07:13:33;6.33;;;2.23;;
13967;SDS011;39536;52.198;9.920;2022-10-03T07:31:52;9.07;;;2.63;;
13967;SDS011;39536;52.198;9.920;2022-10-03T07:34:36;9.53;;;2.70;;
13967;SDS011;39536;52.198;9.920;2022-10-03T07:37:28;6.83;;;2.23;;
13967;SDS011;39536;52.198;9.920;2022-10-03T07:43:32;6.50;;;2.63;;
13967;SDS011;39536;52.198;9.920;2022-10-03T07:49:38;10.43;;;2.77;;
13967;SDS011;39536;52.198;9.920;2022-10-03T07:52:26;8.07;;;2.27;;
13967;SDS011;39536;52.198;9.920;2022-10-03T07:55:20;6.90;;;2.40;;
13967;SDS011;39536;52.198;9.920;2022-10-03T08:00:58;8.00;;;2.50;;
13967;SDS011;39536;52.198;9.920;2022-10-03T08:04:00;7.93;;;2.77;;
13967;SDS011;39536;52.198;9.920;2022-10-03T08:06:47;4.90;;;1.70;;
13967;SDS011;39536;52.198;9.920;2022-10-03T08:09:28;7.40;;;2.13;;
13967;SDS011;39536;52.198;9.920;2022-10-03T08:15:21;12.70;;;3.27;;
13967;SDS011;39536;52.198;9.920;2022-10-03T08:18:06;8.13;;;2.10;;
13967;SDS011;39536;52.198;9.920;2022-10-03T08:21:17;13.80;;;2.77;;
13967;SDS011;39536;52.198;9.920;2022-10-03T08:26:58;7.60;;;2.40;;
13967;SDS011;39536;52.198;9.920;2022-10-03T08:29:47;4.93;;;1.97;;
13967;SDS011;39536;52.198;9.920;2022-10-03T08:32:36;12.67;;;3.07;;
13967;SDS011;39536;52.198;9.920;2022-10-03T08:35:53;7.53;;;2.00;;
13967;SDS011;39536;52.198;9.920;2022-10-03T08:38:49;9.07;;;2.57;;
13967;SDS011;39536;52.198;9.920;2022-10-03T08:50:51;8.30;;;3.23;;
13967;SDS011;39536;52.198;9.920;2022-10-03T08:53:53;9.37;;;2.47;;
13967;SDS011;39536;52.198;9.920;2022-10-03T08:56:50;10.17;;;2.10;;
13967;SDS011;39536;52.198;9.920;2022-10-03T08:59:43;12.03;;;2.60;;
13967;SDS011;39536;52.198;9.920;2022-10-03T09:05:54;12.60;;;2.63;;
13967;SDS011;39536;52.198;9.920;2022-10-03T09:12:24;10.27;;;2.17;;
13967;SDS011;39536;52.198;9.920;2022-10-03T09:15:17;8.60;;;2.37;;
13967;SDS011;39536;52.198;9.920;2022-10-03T09:21:03;10.53;;;2.20;;
13967;SDS011;39536;52.198;9.920;2022-10-03T09:33:01;4.57;;;1.47;;
13967;SDS011;39536;52.198;9.920;2022-10-03T09:35:55;6.00;;;1.40;;
13967;SDS011;39536;52.198;9.920;2022-10-03T09:44:50;5.93;;;1.90;;
13967;SDS011;39536;52.198;9.920;2022-10-03T09:51:01;8.73;;;2.37;;
13967;SDS011;39536;52.198;9.920;2022-10-03T09:53:52;5.97;;;1.77;;
13967;SDS011;39536;52.198;9.920;2022-10-03T09:59:50;5.23;;;1.83;;
13967;SDS011;39536;52.198;9.920;2022-10-03T10:05:38;10.80;;;2.00;;
13967;SDS011;39536;52.198;9.920;2022-10-03T10:08:30;8.37;;;2.53;;
13967;SDS011;39536;52.198;9.920;2022-10-03T10:11:24;4.30;;;1.63;;
13967;SDS011;39536;52.198;9.920;2022-10-03T10:14:25;5.00;;;2.00;;
13967;SDS011;39536;52.198;9.920;2022-10-03T10:17:25;8.33;;;1.87;;
13967;SDS011;39536;52.198;9.920;2022-10-03T10:20:23;6.70;;;1.47;;
13967;SDS011;39536;52.198;9.920;2022-10-03T10:23:09;12.33;;;2.00;;
13967;SDS011;39536;52.198;9.920;2022-10-03T10:26:07;9.30;;;2.13;;
13967;SDS011;39536;52.198;9.920;2022-10-03T10:35:26;5.97;;;1.90;;
13967;SDS011;39536;52.198;9.920;2022-10-03T10:38:35;6.73;;;1.93;;
13967;SDS011;39536;52.198;9.920;2022-10-03T10:48:07;8.33;;;2.10;;
13967;SDS011;39536;52.198;9.920;2022-10-03T10:51:03;9.70;;;2.97;;
13967;SDS011;39536;52.198;9.920;2022-10-03T10:54:24;6.77;;;1.90;;
13967;SDS011;39536;52.198;9.920;2022-10-03T10:57:25;9.80;;;2.17;;
13967;SDS011;39536;52.198;9.920;2022-10-03T11:00:22;8.70;;;2.73;;
13967;SDS011;39536;52.198;9.920;2022-10-03T11:22:24;7.17;;;2.00;;
13967;SDS011;39536;52.198;9.920;2022-10-03T11:31:38;7.27;;;2.43;;
13967;SDS011;39536;52.198;9.920;2022-10-03T11:37:47;3.80;;;1.67;;
13967;SDS011;39536;52.198;9.920;2022-10-03T11:40:23;4.33;;;1.70;;
13967;SDS011;39536;52.198;9.920;2022-10-03T11:42:57;5.77;;;1.83;;
13967;SDS011;39536;52.198;9.920;2022-10-03T11:45:45;6.83;;;2.20;;
13967;SDS011;39536;52.198;9.920;2022-10-03T11:48:26;4.83;;;1.50;;
13967;SDS011;39536;52.198;9.920;2022-10-03T11:51:04;4.87;;;2.00;;
13967;SDS011;39536;52.198;9.920;2022-10-03T11:53:41;5.00;;;1.57;;
13967;SDS011;39536;52.198;9.920;2022-10-03T11:59:03;5.80;;;1.50;;
13967;SDS011;39536;52.198;9.920;2022-10-03T12:01:46;2.67;;;1.40;;
13967;SDS011;39536;52.198;9.920;2022-10-03T12:04:29;4.30;;;1.40;;
13967;SDS011;39536;52.198;9.920;2022-10-03T12:07:09;2.87;;;1.90;;
13967;SDS011;39536;52.198;9.920;2022-10-03T12:10:02;3.13;;;1.47;;
13967;SDS011;39536;52.198;9.920;2022-10-03T12:12:38;5.33;;;1.83;;
13967;SDS011;39536;52.198;9.920;2022-10-03T12:15:17;5.67;;;2.30;;
13967;SDS011;39536;52.198;9.920;2022-10-03T12:17:52;2.77;;;1.67;;
13967;SDS011;39536;52.198;9.920;2022-10-03T12:20:30;4.03;;;1.90;;
13967;SDS011;39536;52.198;9.920;2022-10-03T12:23:07;2.37;;;1.20;;
13967;SDS011;39536;52.198;9.920;2022-10-03T12:25:47;6.83;;;1.57;;
13967;SDS011;39536;52.198;9.920;2022-10-03T12:28:18;4.93;;;1.53;;
13967;SDS011;39536;52.198;9.920;2022-10-03T12:30:50;2.40;;;1.33;;
13967;SDS011;39536;52.198;9.920;2022-10-03T12:33:27;5.27;;;1.80;;
13967;SDS011;39536;52.198;9.920;2022-10-03T12:36:10;4.37;;;1.77;;
13967;SDS011;39536;52.198;9.920;2022-10-03T12:38:43;4.03;;;1.70;;
13967;SDS011;39536;52.198;9.920;2022-10-03T12:41:23;7.10;;;3.07;;
13967;SDS011;39536;52.198;9.920;2022-10-03T12:44:10;6.60;;;2.50;;
13967;SDS011;39536;52.198;9.920;2022-10-03T12:46:49;4.47;;;1.80;;
13967;SDS011;39536;52.198;9.920;2022-10-03T12:49:27;3.23;;;1.90;;
13967;SDS011;39536;52.198;9.920;2022-10-03T12:52:07;2.40;;;1.33;;
13967;SDS011;39536;52.198;9.920;2022-10-03T12:54:44;4.57;;;2.10;;
13967;SDS011;39536;52.198;9.920;2022-10-03T13:00:20;9.47;;;2.20;;
13967;SDS011;39536;52.198;9.920;2022-10-03T13:06:12;4.53;;;2.27;;
13967;SDS011;39536;52.198;9.920;2022-10-03T13:09:04;3.00;;;2.00;;
13967;SDS011;39536;52.198;9.920;2022-10-03T13:11:44;6.50;;;1.83;;
13967;SDS011;39536;52.198;9.920;2022-10-03T13:14:41;6.40;;;1.30;;
13967;SDS011;39536;52.198;9.920;2022-10-03T13:17:30;2.97;;;1.47;;
13967;SDS011;39536;52.198;9.920;2022-10-03T13:20:08;5.23;;;1.70;;
13967;SDS011;39536;52.198;9.920;2022-10-03T13:22:43;6.23;;;2.23;;
13967;SDS011;39536;52.198;9.920;2022-10-03T13:25:16;4.97;;;1.57;;
13967;SDS011;39536;52.198;9.920;2022-10-03T13:27:47;3.40;;;1.17;;
13967;SDS011;39536;52.198;9.920;2022-10-03T13:30:19;4.83;;;1.60;;
13967;SDS011;39536;52.198;9.920;2022-10-03T13:32:49;6.40;;;1.57;;
13967;SDS011;39536;52.198;9.920;2022-10-03T13:35:33;5.13;;;1.47;;
13967;SDS011;39536;52.198;9.920;2022-10-03T13:38:26;3.43;;;1.27;;
13967;SDS011;39536;52.198;9.920;2022-10-03T13:41:10;2.13;;;0.93;;
13967;SDS011;39536;52.198;9.920;2022-10-03T13:43:47;3.13;;;1.47;;
13967;SDS011;39536;52.198;9.920;2022-10-03T13:46:22;3.90;;;1.00;;
13967;SDS011;39536;52.198;9.920;2022-10-03T13:48:55;4.77;;;2.50;;
13967;SDS011;39536;52.198;9.920;2022-10-03T13:51:26;3.47;;;1.47;;
13967;SDS011;39536;52.198;9.920;2022-10-03T13:54:04;5.73;;;1.50;;
13967;SDS011;39536;52.198;9.920;2022-10-03T13:56:40;7.10;;;1.93;;
13967;SDS011;39536;52.198;9.920;2022-10-03T13:59:17;6.20;;;2.73;;
13967;SDS011;39536;52.198;9.920;2022-10-03T14:01:58;6.33;;;2.93;;
13967;SDS011;39536;52.198;9.920;2022-10-03T14:04:50;2.93;;;1.20;;
13967;SDS011;39536;52.198;9.920;2022-10-03T14:07:34;3.97;;;1.20;;
13967;SDS011;39536;52.198;9.920;2022-10-03T14:10:17;3.20;;;1.10;;
13967;SDS011;39536;52.198;9.920;2022-10-03T14:15:50;7.43;;;2.40;;
13967;SDS011;39536;52.198;9.920;2022-10-03T14:18:27;4.07;;;2.40;;
13967;SDS011;39536;52.198;9.920;2022-10-03T14:24:17;3.90;;;1.00;;
13967;SDS011;39536;52.198;9.920;2022-10-03T14:26:55;6.13;;;1.57;;
13967;SDS011;39536;52.198;9.920;2022-10-03T14:29:29;5.43;;;1.70;;
13967;SDS011;39536;52.198;9.920;2022-10-03T14:32:02;2.97;;;1.23;;
13967;SDS011;39536;52.198;9.920;2022-10-03T14:34:40;3.00;;;1.13;;
13967;SDS011;39536;52.198;9.920;2022-10-03T14:37:21;3.77;;;1.57;;
13967;SDS011;39536;52.198;9.920;2022-10-03T14:39:55;3.53;;;1.23;;
13967;SDS011;39536;52.198;9.920;2022-10-03T14:42:37;2.90;;;1.30;;
13967;SDS011;39536;52.198;9.920;2022-10-03T14:45:14;8.93;;;1.73;;
13967;SDS011;39536;52.198;9.920;2022-10-03T14:47:46;2.07;;;1.00;;
13967;SDS011;39536;52.198;9.920;2022-10-03T14:50:16;4.90;;;2.73;;
13967;SDS011;39536;52.198;9.920;2022-10-03T14:52:47;1.90;;;1.30;;
13967;SDS011;39536;52.198;9.920;2022-10-03T14:55:19;2.30;;;1.10;;
13967;SDS011;39536;52.198;9.920;2022-10-03T14:57:50;3.40;;;2.00;;
13967;SDS011;39536;52.198;9.920;2022-10-03T15:00:26;2.07;;;1.40;;
13967;SDS011;39536;52.198;9.920;2022-10-03T15:03:12;3.33;;;1.23;;
13967;SDS011;39536;52.198;9.920;2022-10-03T15:05:55;2.43;;;0.87;;
13967;SDS011;39536;52.198;9.920;2022-10-03T15:08:28;3.73;;;1.67;;
13967;SDS011;39536;52.198;9.920;2022-10-03T15:11:00;3.37;;;1.73;;
13967;SDS011;39536;52.198;9.920;2022-10-03T15:13:30;2.50;;;1.30;;
13967;SDS011;39536;52.198;9.920;2022-10-03T15:16:05;4.60;;;1.53;;
13967;SDS011;39536;52.198;9.920;2022-10-03T15:18:34;3.03;;;1.00;;
13967;SDS011;39536;52.198;9.920;2022-10-03T15:21:03;3.17;;;1.20;;
13967;SDS011;39536;52.198;9.920;2022-10-03T15:23:36;2.53;;;1.20;;
13967;SDS011;39536;52.198;9.920;2022-10-03T15:26:07;2.53;;;1.53;;
13967;SDS011;39536;52.198;9.920;2022-10-03T15:28:39;2.53;;;1.30;;
13967;SDS011;39536;52.198;9.920;2022-10-03T15:31:14;2.33;;;0.83;;
13967;SDS011;39536;52.198;9.920;2022-10-03T15:33:47;2.67;;;1.10;;
13967;SDS011;39536;52.198;9.920;2022-10-03T15:36:20;2.47;;;1.50;;
13967;SDS011;39536;52.198;9.920;2022-10-03T15:38:51;2.17;;;1.30;;
13967;SDS011;39536;52.198;9.920;2022-10-03T15:41:20;6.10;;;1.30;;
13967;SDS011;39536;52.198;9.920;2022-10-03T15:43:54;4.80;;;1.40;;
13967;SDS011;39536;52.198;9.920;2022-10-03T15:46:30;2.50;;;1.03;;
13967;SDS011;39536;52.198;9.920;2022-10-03T15:49:00;2.03;;;1.30;;
13967;SDS011;39536;52.198;9.920;2022-10-03T15:51:30;2.13;;;1.10;;
13967;SDS011;39536;52.198;9.920;2022-10-03T15:54:03;2.20;;;1.10;;
13967;SDS011;39536;52.198;9.920;2022-10-03T15:56:34;4.03;;;1.47;;
13967;SDS011;39536;52.198;9.920;2022-10-03T15:59:06;4.60;;;2.23;;
13967;SDS011;39536;52.198;9.920;2022-10-03T16:01:38;4.63;;;1.40;;
13967;SDS011;39536;52.198;9.920;2022-10-03T16:04:06;4.37;;;1.73;;
13967;SDS011;39536;52.198;9.920;2022-10-03T16:06:42;5.63;;;1.57;;
13967;SDS011;39536;52.198;9.920;2022-10-03T16:09:15;5.13;;;1.53;;
13967;SDS011;39536;52.198;9.920;2022-10-03T16:11:52;3.80;;;1.50;;
13967;SDS011;39536;52.198;9.920;2022-10-03T16:14:27;8.17;;;1.67;;
13967;SDS011;39536;52.198;9.920;2022-10-03T16:17:01;3.97;;;1.73;;
13967;SDS011;39536;52.198;9.920;2022-10-03T16:19:38;3.23;;;1.20;;
13967;SDS011;39536;52.198;9.920;2022-10-03T16:22:15;3.93;;;2.20;;
13967;SDS011;39536;52.198;9.920;2022-10-03T16:24:52;4.47;;;1.63;;
13967;SDS011;39536;52.198;9.920;2022-10-03T16:27:27;4.77;;;1.93;;
13967;SDS011;39536;52.198;9.920;2022-10-03T16:30:10;4.70;;;1.60;;
13967;SDS011;39536;52.198;9.920;2022-10-03T16:32:49;6.37;;;1.70;;
13967;SDS011;39536;52.198;9.920;2022-10-03T16:35:26;6.17;;;1.73;;
13967;SDS011;39536;52.198;9.920;2022-10-03T16:37:58;4.47;;;1.73;;
13967;SDS011;39536;52.198;9.920;2022-10-03T16:40:27;4.13;;;1.63;;
13967;SDS011;39536;52.198;9.920;2022-10-03T16:42:55;6.67;;;2.03;;
13967;SDS011;39536;52.198;9.920;2022-10-03T16:45:25;4.97;;;2.40;;
13967;SDS011;39536;52.198;9.920;2022-10-03T16:47:58;9.60;;;2.17;;
13967;SDS011;39536;52.198;9.920;2022-10-03T16:50:46;5.90;;;2.03;;
13967;SDS011;39536;52.198;9.920;2022-10-03T16:53:16;3.20;;;1.50;;
13967;SDS011;39536;52.198;9.920;2022-10-03T16:55:46;4.30;;;1.60;;
13967;SDS011;39536;52.198;9.920;2022-10-03T16:58:17;4.70;;;2.10;;
13967;SDS011;39536;52.198;9.920;2022-10-03T17:00:49;7.27;;;1.87;;
13967;SDS011;39536;52.198;9.920;2022-10-03T17:03:23;4.00;;;1.63;;
13967;SDS011;39536;52.198;9.920;2022-10-03T17:05:55;5.63;;;2.43;;
13967;SDS011;39536;52.198;9.920;2022-10-03T17:08:26;6.77;;;1.60;;
13967;SDS011;39536;52.198;9.920;2022-10-03T17:10:57;3.70;;;1.67;;
13967;SDS011;39536;52.198;9.920;2022-10-03T17:13:26;4.43;;;1.90;;
13967;SDS011;39536;52.198;9.920;2022-10-03T17:16:07;4.50;;;1.57;;
13967;SDS011;39536;52.198;9.920;2022-10-03T17:18:40;6.80;;;1.70;;
13967;SDS011;39536;52.198;9.920;2022-10-03T17:21:14;2.83;;;1.33;;
13967;SDS011;39536;52.198;9.920;2022-10-03T17:23:48;4.87;;;1.90;;
13967;SDS011;39536;52.198;9.920;2022-10-03T17:26:23;2.00;;;1.60;;
13967;SDS011;39536;52.198;9.920;2022-10-03T17:28:53;7.10;;;2.47;;
13967;SDS011;39536;52.198;9.920;2022-10-03T17:31:28;4.17;;;2.20;;
13967;SDS011;39536;52.198;9.920;2022-10-03T17:34:10;3.17;;;1.47;;
13967;SDS011;39536;52.198;9.920;2022-10-03T17:37:03;2.90;;;1.53;;
13967;SDS011;39536;52.198;9.920;2022-10-03T17:39:37;6.07;;;1.97;;
13967;SDS011;39536;52.198;9.920;2022-10-03T17:42:17;5.20;;;2.70;;
13967;SDS011;39536;52.198;9.920;2022-10-03T17:45:04;5.10;;;2.67;;
13967;SDS011;39536;52.198;9.920;2022-10-03T17:47:46;4.90;;;1.90;;
13967;SDS011;39536;52.198;9.920;2022-10-03T17:50:22;2.17;;;1.40;;
13967;SDS011;39536;52.198;9.920;2022-10-03T17:52:55;4.43;;;2.00;;
13967;SDS011;39536;52.198;9.920;2022-10-03T17:55:25;4.03;;;1.60;;
13967;SDS011;39536;52.198;9.920;2022-10-03T17:57:57;3.70;;;1.50;;
13967;SDS011;39536;52.198;9.920;2022-10-03T18:00:27;3.23;;;1.83;;
13967;SDS011;39536;52.198;9.920;2022-10-03T18:02:58;3.67;;;1.97;;
13967;SDS011;39536;52.198;9.920;2022-10-03T18:05:33;5.83;;;2.60;;
13967;SDS011;39536;52.198;9.920;2022-10-03T18:08:04;7.43;;;3.97;;
13967;SDS011;39536;52.198;9.920;2022-10-03T18:10:35;6.17;;;2.33;;
13967;SDS011;39536;52.198;9.920;2022-10-03T18:13:06;4.90;;;2.70;;
13967;SDS011;39536;52.198;9.920;2022-10-03T18:16:03;5.23;;;2.63;;
13967;SDS011;39536;52.198;9.920;2022-10-03T18:18:47;9.90;;;4.57;;
13967;SDS011;39536;52.198;9.920;2022-10-03T18:21:32;5.00;;;2.60;;
13967;SDS011;39536;52.198;9.920;2022-10-03T18:24:09;6.10;;;2.57;;
13967;SDS011;39536;52.198;9.920;2022-10-03T18:26:46;5.50;;;2.07;;
13967;SDS011;39536;52.198;9.920;2022-10-03T18:29:20;3.17;;;2.03;;
13967;SDS011;39536;52.198;9.920;2022-10-03T18:31:54;7.43;;;2.10;;
13967;SDS011;39536;52.198;9.920;2022-10-03T18:34:25;6.40;;;2.57;;
13967;SDS011;39536;52.198;9.920;2022-10-03T18:37:00;5.40;;;3.07;;
13967;SDS011;39536;52.198;9.920;2022-10-03T18:39:41;3.83;;;2.10;;
13967;SDS011;39536;52.198;9.920;2022-10-03T18:42:10;6.80;;;2.83;;
13967;SDS011;39536;52.198;9.920;2022-10-03T18:44:37;4.30;;;1.77;;
13967;SDS011;39536;52.198;9.920;2022-10-03T18:47:12;4.10;;;2.10;;
13967;SDS011;39536;52.198;9.920;2022-10-03T18:49:49;5.80;;;2.40;;
13967;SDS011;39536;52.198;9.920;2022-10-03T18:52:30;6.43;;;2.40;;
13967;SDS011;39536;52.198;9.920;2022-10-03T18:55:05;3.33;;;1.90;;
13967;SDS011;39536;52.198;9.920;2022-10-03T18:57:41;4.87;;;2.30;;
13967;SDS011;39536;52.198;9.920;2022-10-03T19:00:14;6.13;;;2.00;;
13967;SDS011;39536;52.198;9.920;2022-10-03T19:02:46;5.50;;;1.90;;
13967;SDS011;39536;52.198;9.920;2022-10-03T19:05:18;5.23;;;2.17;;
13967;SDS011;39536;52.198;9.920;2022-10-03T19:07:50;3.80;;;1.53;;
13967;SDS011;39536;52.198;9.920;2022-10-03T19:10:32;4.43;;;2.20;;
13967;SDS011;39536;52.198;9.920;2022-10-03T19:13:14;6.17;;;2.07;;
13967;SDS011;39536;52.198;9.920;2022-10-03T19:16:04;4.17;;;2.00;;
13967;SDS011;39536;52.198;9.920;2022-10-03T19:18:53;4.97;;;2.20;;
13967;SDS011;39536;52.198;9.920;2022-10-03T19:21:26;8.70;;;2.47;;
13967;SDS011;39536;52.198;9.920;2022-10-03T19:23:58;4.00;;;1.87;;